Schedule Details

Flight Number: CPX364
Departure: Fort Worth Alliance Airport (KAFW) at N/A
Arrival: March Air Reserve Base (KRIV) at N/A
Route: SWABR5 DOSXX INK V94 TFD J169 TRM ARKOE1


Current Weather Information
KAFW 151953Z 34015G19KT 10SM FEW130 BKN280 22/09 A2969 RMK AO2 SLP047 T02220094
KRIV 151958Z 13003KT 10SM SCT025 BKN050 BKN130 BKN200 12/11 A3011 RMK AO2A SLP197 T01190105

Route Map